Time;durP1;ratioP1;P1;durP2;ratioP2;P2;SDS_P1;SDS_P2;PMS_P1;PMS_P2;Temp;Humidity;BMP_temperature;BMP_pressure;BME280_temperature;BME280_humidity;BME280_pressure;Samples;Min_cycle;Max_cycle;Signal;HPM_P1;HPM_P2
2023/12/04 00:01:49;;;;;;;6.50;4.90;;;-2.70;99.90;;;;;;5071703;28;20186;-72
2023/12/04 00:04:14;;;;;;;5.33;4.47;;;-2.70;99.90;;;;;;5071420;28;20206;-73
2023/12/04 00:06:43;;;;;;;4.50;3.90;;;-2.70;99.90;;;;;;5069800;28;20475;-72
2023/12/04 00:09:09;;;;;;;5.40;4.18;;;-2.60;99.90;;;;;;5071235;28;20179;-72
2023/12/04 00:11:34;;;;;;;6.10;4.70;;;-2.70;99.90;;;;;;5071218;28;20179;-72
2023/12/04 00:14:00;;;;;;;7.40;3.90;;;-2.60;99.90;;;;;;5071235;28;20677;-72
2023/12/04 00:16:26;;;;;;;5.30;4.27;;;-2.60;99.90;;;;;;5070821;28;20285;-72
2023/12/04 00:18:52;;;;;;;5.20;4.15;;;-2.60;99.90;;;;;;5070810;28;20186;-72
2023/12/04 00:21:17;;;;;;;7.63;4.90;;;-2.60;99.90;;;;;;5069094;28;20259;-73
2023/12/04 00:23:43;;;;;;;9.93;5.23;;;-2.50;99.90;;;;;;5070890;28;20237;-72
2023/12/04 00:26:09;;;;;;;7.07;4.93;;;-2.60;99.90;;;;;;5070952;28;20210;-72
2023/12/04 00:28:37;;;;;;;7.10;5.10;;;-2.60;99.90;;;;;;5068786;28;20275;-72
2023/12/04 00:31:03;;;;;;;6.93;4.90;;;-2.60;99.90;;;;;;5069464;28;20183;-73
2023/12/04 00:33:29;;;;;;;7.80;5.43;;;-2.60;99.90;;;;;;5069567;28;20209;-72
2023/12/04 00:35:54;;;;;;;6.50;4.70;;;-2.60;99.90;;;;;;5071428;28;20222;-73
2023/12/04 00:38:20;;;;;;;7.97;5.10;;;-2.70;99.90;;;;;;5070696;28;20174;-72
2023/12/04 00:40:46;;;;;;;6.63;4.57;;;-2.70;99.90;;;;;;5069473;28;20202;-72
2023/12/04 00:43:11;;;;;;;6.37;4.33;;;-2.70;99.90;;;;;;5069299;28;20237;-72
2023/12/04 00:45:37;;;;;;;5.47;4.40;;;-2.70;99.90;;;;;;5070718;28;20276;-72
2023/12/04 00:48:02;;;;;;;7.20;4.53;;;-2.80;99.90;;;;;;5070562;28;20194;-72
2023/12/04 00:50:28;;;;;;;6.47;4.50;;;-2.70;99.90;;;;;;5052448;28;20190;-74
2023/12/04 00:52:54;;;;;;;6.97;4.20;;;-2.70;99.90;;;;;;5070368;28;20190;-73
2023/12/04 00:55:20;;;;;;;5.20;4.23;;;-2.80;99.90;;;;;;5070368;28;20215;-72
2023/12/04 00:57:45;;;;;;;5.13;4.10;;;-2.80;99.90;;;;;;5070433;28;20182;-72
2023/12/04 01:00:12;;;;;;;4.57;3.30;;;-2.80;99.90;;;;;;5070439;28;20179;-73
2023/12/04 01:02:37;;;;;;;5.32;3.95;;;-2.70;99.90;;;;;;5068988;28;20444;-73
2023/12/04 01:05:03;;;;;;;4.27;3.13;;;-2.70;99.90;;;;;;5070328;28;20604;-72
2023/12/04 01:07:29;;;;;;;5.65;3.80;;;-2.70;99.90;;;;;;5070570;28;20676;-72
2023/12/04 01:09:55;;;;;;;3.80;3.40;;;-2.60;99.90;;;;;;5068925;28;20217;-73
2023/12/04 01:12:21;;;;;;;3.53;3.13;;;-2.60;99.90;;;;;;5052111;28;20221;-72
2023/12/04 01:14:46;;;;;;;4.10;3.50;;;-2.70;99.90;;;;;;5070297;28;20210;-72
2023/12/04 01:17:12;;;;;;;4.00;3.13;;;-2.70;99.90;;;;;;5070274;28;20263;-72
2023/12/04 01:19:37;;;;;;;5.20;3.73;;;-2.70;99.90;;;;;;5068898;28;20198;-72
2023/12/04 01:22:03;;;;;;;5.63;3.20;;;-2.70;99.90;;;;;;5070572;28;20202;-72
2023/12/04 01:24:29;;;;;;;3.80;3.50;;;-2.70;99.90;;;;;;5069200;28;20207;-72
2023/12/04 01:26:54;;;;;;;4.70;3.23;;;-2.70;99.90;;;;;;5069131;28;20195;-73
2023/12/04 01:29:20;;;;;;;5.07;3.20;;;-2.70;99.90;;;;;;5069179;28;20553;-72
2023/12/04 01:31:45;;;;;;;4.07;3.27;;;-2.80;99.90;;;;;;5070432;28;20186;-72
2023/12/04 01:34:11;;;;;;;3.90;3.00;;;-2.80;99.90;;;;;;5069028;28;20179;-72
2023/12/04 01:36:40;;;;;;;14.90;8.80;;;-2.90;99.90;;;;;;5070219;28;20219;-72
2023/12/04 01:39:06;;;;;;;19.25;10.98;;;-3.00;99.90;;;;;;5069511;28;20179;-73
2023/12/04 01:41:32;;;;;;;19.67;11.37;;;-3.20;99.90;;;;;;5068797;28;20557;-72
2023/12/04 01:43:57;;;;;;;19.13;11.03;;;-3.40;99.90;;;;;;5051582;28;20183;-72
2023/12/04 01:46:23;;;;;;;21.27;12.00;;;-3.60;99.90;;;;;;5069412;28;20280;-72
2023/12/04 01:48:49;;;;;;;19.10;11.00;;;-3.80;99.90;;;;;;5067949;28;20684;-70
2023/12/04 01:51:17;;;;;;;15.23;9.70;;;-3.90;99.90;;;;;;5069354;28;21035;-72
2023/12/04 01:53:43;;;;;;;16.92;10.90;;;-3.90;99.90;;;;;;5069074;28;20194;-72
2023/12/04 01:56:09;;;;;;;16.40;10.00;;;-4.00;99.90;;;;;;5068714;28;20562;-72
2023/12/04 01:58:35;;;;;;;12.20;8.30;;;-4.00;99.90;;;;;;5069072;28;20416;-71
2023/12/04 02:01:01;;;;;;;15.10;9.00;;;-4.00;99.90;;;;;;5068893;28;20649;-72
2023/12/04 02:03:28;;;;;;;16.90;9.88;;;-4.10;99.90;;;;;;5067572;28;20538;-72
2023/12/04 02:05:54;;;;;;;15.02;10.20;;;-4.20;99.90;;;;;;5050284;28;20215;-72
2023/12/04 02:08:20;;;;;;;16.85;11.02;;;-4.20;99.90;;;;;;5068686;28;20186;-72
2023/12/04 02:10:45;;;;;;;16.60;11.23;;;-4.20;99.90;;;;;;5068509;28;20202;-71
2023/12/04 02:13:11;;;;;;;22.40;12.53;;;-4.40;99.90;;;;;;5067193;28;20498;-72
2023/12/04 02:15:37;;;;;;;25.60;13.40;;;-4.20;99.90;;;;;;5067096;28;20888;-72
2023/12/04 02:18:03;;;;;;;24.10;14.30;;;-4.30;99.90;;;;;;5068505;28;20641;-72
2023/12/04 02:20:33;;;;;;;24.10;13.82;;;-4.40;99.90;;;;;;5068608;28;20175;-72
2023/12/04 02:22:59;;;;;;;20.58;12.50;;;-4.60;99.90;;;;;;5066916;28;20183;-72
2023/12/04 02:25:25;;;;;;;19.33;11.93;;;-4.50;99.90;;;;;;5033845;28;20203;-72
2023/12/04 02:27:52;;;;;;;25.37;13.80;;;-4.60;99.90;;;;;;5068582;28;20187;-71
2023/12/04 02:30:21;;;;;;;22.88;12.20;;;-4.60;99.90;;;;;;5067064;28;20657;-72
2023/12/04 02:32:48;;;;;;;20.30;11.45;;;-4.60;99.90;;;;;;5066990;28;20194;-72
2023/12/04 02:35:19;;;;;;;15.07;9.05;;;-4.60;99.90;;;;;;5066488;28;20284;-72
2023/12/04 02:37:45;;;;;;;19.83;11.30;;;-4.60;99.90;;;;;;5067235;28;20178;-72
2023/12/04 02:40:12;;;;;;;11.98;6.63;;;-4.60;99.90;;;;;;5068321;28;20211;-72
2023/12/04 02:42:37;;;;;;;9.68;6.00;;;-4.40;99.90;;;;;;5068126;28;20207;-72
2023/12/04 02:45:03;;;;;;;6.80;5.10;;;-4.20;99.90;;;;;;5033363;28;20187;-72
2023/12/04 02:47:29;;;;;;;8.60;4.87;;;-4.00;99.90;;;;;;5066767;28;20194;-72
2023/12/04 02:49:54;;;;;;;7.23;4.43;;;-3.90;99.90;;;;;;5066484;28;20509;-72
2023/12/04 02:52:20;;;;;;;6.90;4.60;;;-3.70;99.90;;;;;;5050110;28;20198;-72
2023/12/04 02:54:45;;;;;;;4.20;3.70;;;-3.70;99.90;;;;;;5066256;28;20220;-72
2023/12/04 02:57:11;;;;;;;9.53;4.27;;;-3.50;99.90;;;;;;5066316;28;20689;-73
2023/12/04 02:59:36;;;;;;;4.83;3.63;;;-3.50;99.90;;;;;;5067886;28;20182;-72
2023/12/04 03:02:02;;;;;;;4.30;3.40;;;-3.40;99.90;;;;;;5066496;28;20183;-72
2023/12/04 03:04:29;;;;;;;5.43;3.60;;;-3.30;99.90;;;;;;5066561;28;20266;-72
2023/12/04 03:06:55;;;;;;;3.30;2.53;;;-3.20;99.90;;;;;;5066439;28;20614;-72
2023/12/04 03:09:21;;;;;;;4.03;2.65;;;-3.10;99.90;;;;;;5066364;28;20194;-72
2023/12/04 03:11:46;;;;;;;2.80;2.20;;;-3.10;99.90;;;;;;5066548;28;20646;-72
2023/12/04 03:14:12;;;;;;;2.50;2.30;;;-2.90;99.90;;;;;;5049826;28;20229;-72
2023/12/04 03:16:38;;;;;;;2.33;2.13;;;-2.80;99.90;;;;;;5067703;28;20244;-72
2023/12/04 03:19:04;;;;;;;1.60;1.50;;;-2.80;99.90;;;;;;5049628;28;20179;-72
2023/12/04 03:21:29;;;;;;;3.43;2.70;;;-2.70;99.90;;;;;;5066198;28;20190;-71
2023/12/04 03:23:55;;;;;;;2.03;1.83;;;-2.70;99.90;;;;;;5067637;28;20453;-72
2023/12/04 03:26:20;;;;;;;3.20;2.90;;;-2.70;99.90;;;;;;5067726;28;20225;-72
2023/12/04 03:28:46;;;;;;;3.07;2.67;;;-2.70;99.90;;;;;;5049542;28;20535;-72
2023/12/04 03:31:11;;;;;;;2.83;2.20;;;-2.70;99.90;;;;;;5067823;28;20191;-73
2023/12/04 03:33:37;;;;;;;2.50;2.30;;;-2.60;99.90;;;;;;5067698;28;20187;-73
2023/12/04 03:36:03;;;;;;;1.83;1.73;;;-2.60;99.90;;;;;;5067662;28;20673;-72
2023/12/04 03:38:29;;;;;;;3.85;1.98;;;-2.60;99.90;;;;;;5066270;28;20706;-73
2023/12/04 03:40:54;;;;;;;5.03;2.53;;;-2.50;99.90;;;;;;5067774;28;20241;-72
2023/12/04 03:43:20;;;;;;;2.23;1.90;;;-2.50;99.90;;;;;;5067671;28;20524;-72
2023/12/04 03:45:46;;;;;;;2.23;2.03;;;-2.50;99.90;;;;;;5049232;28;20237;-73
2023/12/04 03:48:11;;;;;;;14.20;2.27;;;-2.40;99.90;;;;;;5065793;28;20665;-73
2023/12/04 03:50:37;;;;;;;4.00;2.13;;;-2.30;99.90;;;;;;5067493;28;20183;-73
2023/12/04 03:53:02;;;;;;;3.70;2.50;;;-2.30;99.90;;;;;;5049417;28;20198;-72
2023/12/04 03:55:28;;;;;;;2.50;2.13;;;-2.30;99.90;;;;;;5065780;28;20254;-73
2023/12/04 03:57:55;;;;;;;2.47;2.27;;;-2.30;99.90;;;;;;5067485;28;20241;-72
2023/12/04 04:00:20;;;;;;;4.65;2.15;;;-2.20;99.90;;;;;;5067313;28;20684;-72
2023/12/04 04:02:46;;;;;;;2.30;2.00;;;-2.20;99.90;;;;;;5067238;28;20183;-73
2023/12/04 04:05:12;;;;;;;3.33;2.60;;;-2.20;99.90;;;;;;5052771;28;20849;-71
2023/12/04 04:07:37;;;;;;;3.10;2.83;;;-2.30;99.90;;;;;;5071058;28;20809;-72
2023/12/04 04:10:04;;;;;;;2.27;2.07;;;-2.30;99.90;;;;;;5069484;28;20206;-72
2023/12/04 04:12:30;;;;;;;4.13;3.65;;;-2.20;99.90;;;;;;5069372;28;20724;-72
2023/12/04 04:14:56;;;;;;;4.50;3.60;;;-2.30;99.90;;;;;;5070777;28;20299;-72
2023/12/04 04:17:22;;;;;;;4.50;3.73;;;-2.30;99.90;;;;;;5070781;28;20286;-72
2023/12/04 04:19:47;;;;;;;4.07;3.70;;;-2.40;99.90;;;;;;5070807;28;20413;-72
2023/12/04 04:22:13;;;;;;;12.70;8.63;;;-2.50;99.90;;;;;;5070756;28;20194;-72
2023/12/04 04:24:38;;;;;;;17.80;10.67;;;-2.70;99.90;;;;;;5069318;28;20175;-72
2023/12/04 04:27:04;;;;;;;18.87;12.00;;;-2.90;99.90;;;;;;5069309;28;20206;-72
2023/12/04 04:29:30;;;;;;;15.70;11.60;;;-3.30;99.90;;;;;;5070758;28;20270;-72
2023/12/04 04:31:55;;;;;;;19.57;11.80;;;-3.70;99.90;;;;;;5052702;28;20179;-72
2023/12/04 04:34:21;;;;;;;22.77;13.03;;;-4.00;99.90;;;;;;5070559;28;20218;-72
2023/12/04 04:36:47;;;;;;;20.02;12.23;;;-4.20;99.90;;;;;;5068825;28;20250;-72
2023/12/04 04:39:14;;;;;;;21.50;11.70;;;-4.50;99.90;;;;;;5070420;28;20246;-72
2023/12/04 04:41:40;;;;;;;21.30;12.13;;;-4.50;99.90;;;;;;5069001;28;20186;-72
2023/12/04 04:44:06;;;;;;;21.60;12.97;;;-4.60;99.90;;;;;;5070315;28;20175;-72
2023/12/04 04:46:32;;;;;;;24.15;13.30;;;-4.70;99.90;;;;;;5070154;28;20494;-72
2023/12/04 04:48:57;;;;;;;26.47;14.33;;;-4.80;99.90;;;;;;5069896;28;20183;-72
2023/12/04 04:51:23;;;;;;;20.77;12.37;;;-4.80;99.90;;;;;;5069941;28;20491;-72
2023/12/04 04:53:49;;;;;;;18.58;11.95;;;-4.80;99.90;;;;;;5069905;28;20262;-72
2023/12/04 04:56:15;;;;;;;25.13;13.60;;;-4.90;99.90;;;;;;5068353;28;20333;-72
2023/12/04 04:58:41;;;;;;;18.37;11.17;;;-4.90;99.90;;;;;;5069437;28;20805;-72
2023/12/04 05:01:08;;;;;;;21.53;13.03;;;-4.90;99.90;;;;;;5069358;28;20787;-72
2023/12/04 05:03:33;;;;;;;23.30;12.63;;;-5.00;99.90;;;;;;5069405;28;20274;-72
2023/12/04 05:05:59;;;;;;;21.43;11.83;;;-5.00;99.90;;;;;;5069399;28;20282;-72
2023/12/04 05:08:24;;;;;;;24.70;13.27;;;-5.10;99.90;;;;;;5069081;28;20307;-72
2023/12/04 05:10:50;;;;;;;20.13;11.57;;;-5.10;99.90;;;;;;5067484;28;20191;-72
2023/12/04 05:13:16;;;;;;;18.17;11.83;;;-5.00;99.90;;;;;;5068105;28;20183;-72
2023/12/04 05:15:41;;;;;;;25.23;13.43;;;-5.10;99.90;;;;;;5051151;28;20221;-72
2023/12/04 05:18:07;;;;;;;20.60;12.00;;;-5.10;99.90;;;;;;5051172;28;20281;-72
2023/12/04 05:20:32;;;;;;;20.40;12.97;;;-5.10;99.90;;;;;;5069115;28;20187;-72
2023/12/04 05:22:58;;;;;;;20.90;12.67;;;-5.10;99.90;;;;;;5067601;28;20184;-72
2023/12/04 05:25:23;;;;;;;21.73;12.50;;;-5.10;99.90;;;;;;5067296;28;20207;-73
2023/12/04 05:27:49;;;;;;;24.60;13.47;;;-5.20;99.90;;;;;;5067322;28;20648;-72
2023/12/04 05:30:15;;;;;;;23.87;12.57;;;-5.20;99.90;;;;;;5068658;28;20183;-72
2023/12/04 05:32:40;;;;;;;22.30;12.03;;;-5.10;99.90;;;;;;5067215;28;20219;-72
2023/12/04 05:35:06;;;;;;;21.33;12.77;;;-5.10;99.90;;;;;;5068744;28;20215;-72
2023/12/04 05:37:32;;;;;;;18.30;12.30;;;-5.20;99.90;;;;;;5067752;28;20213;-71
2023/12/04 05:39:58;;;;;;;18.73;11.83;;;-5.10;99.90;;;;;;5067638;28;20422;-72
2023/12/04 05:42:23;;;;;;;27.03;13.33;;;-5.10;99.90;;;;;;5068628;28;20201;-72
2023/12/04 05:44:49;;;;;;;21.83;13.63;;;-5.10;99.90;;;;;;5068638;28;20183;-72
2023/12/04 05:47:15;;;;;;;17.90;10.57;;;-5.10;99.90;;;;;;5067180;28;20227;-73
2023/12/04 05:49:41;;;;;;;15.13;10.00;;;-5.10;99.90;;;;;;5068932;28;20240;-73
2023/12/04 05:52:06;;;;;;;11.32;7.25;;;-5.00;99.90;;;;;;5067310;28;20186;-72
2023/12/04 05:54:32;;;;;;;10.13;6.90;;;-4.80;99.90;;;;;;5066760;28;20569;-73
2023/12/04 05:56:58;;;;;;;19.50;12.23;;;-4.50;99.90;;;;;;5068321;28;20285;-71
2023/12/04 05:59:24;;;;;;;12.93;8.30;;;-4.40;99.90;;;;;;5068202;28;20270;-71
2023/12/04 06:01:49;;;;;;;15.57;10.30;;;-4.30;99.90;;;;;;5068373;28;20181;-71
2023/12/04 06:04:15;;;;;;;18.00;11.57;;;-4.10;99.90;;;;;;5067013;28;20413;-73
2023/12/04 06:06:40;;;;;;;12.20;8.63;;;-3.90;99.90;;;;;;5066666;28;20654;-72
2023/12/04 06:09:06;;;;;;;9.40;5.67;;;-3.70;99.90;;;;;;5068538;28;20191;-71
2023/12/04 06:11:32;;;;;;;8.77;5.47;;;-3.50;99.90;;;;;;5050273;28;20199;-72
2023/12/04 06:13:58;;;;;;;8.83;5.53;;;-3.30;99.90;;;;;;5068180;28;20190;-73
2023/12/04 06:16:23;;;;;;;5.57;4.73;;;-3.30;99.90;;;;;;5068001;28;20236;-73
2023/12/04 06:18:49;;;;;;;7.30;5.43;;;-3.20;99.90;;;;;;5068210;28;20844;-72
2023/12/04 06:21:14;;;;;;;6.13;4.70;;;-3.20;99.90;;;;;;5068088;28;20187;-72
2023/12/04 06:23:40;;;;;;;6.93;5.07;;;-3.00;99.90;;;;;;5068344;28;20180;-72
2023/12/04 06:26:06;;;;;;;8.10;5.60;;;-3.00;99.90;;;;;;5067763;28;20230;-71
2023/12/04 06:28:32;;;;;;;8.98;6.30;;;-2.90;99.90;;;;;;5066832;28;20461;-71
2023/12/04 06:30:58;;;;;;;8.13;4.90;;;-2.90;99.90;;;;;;5068421;28;20237;-71
2023/12/04 06:33:24;;;;;;;6.30;5.03;;;-2.80;99.90;;;;;;5068232;28;20495;-71
2023/12/04 06:35:50;;;;;;;7.00;5.33;;;-2.80;99.90;;;;;;5068194;28;20993;-72
2023/12/04 06:38:17;;;;;;;5.57;5.07;;;-2.80;99.90;;;;;;5066760;28;20179;-71
2023/12/04 06:40:43;;;;;;;7.70;5.40;;;-2.70;99.90;;;;;;5050140;28;20430;-73
2023/12/04 06:43:09;;;;;;;4.60;3.83;;;-2.60;99.90;;;;;;5067756;28;20209;-72
2023/12/04 06:45:35;;;;;;;5.93;4.80;;;-2.60;99.90;;;;;;5067947;28;20199;-72
2023/12/04 06:48:01;;;;;;;8.20;6.17;;;-2.60;99.90;;;;;;5067934;28;20190;-71
2023/12/04 06:50:27;;;;;;;13.10;7.67;;;-2.60;99.90;;;;;;5066964;28;20425;-71
2023/12/04 06:52:52;;;;;;;7.95;5.55;;;-2.60;99.90;;;;;;5068058;28;20178;-73
2023/12/04 06:55:19;;;;;;;7.00;5.40;;;-2.60;99.90;;;;;;5067662;28;20210;-72
2023/12/04 06:57:45;;;;;;;6.80;4.47;;;-2.60;99.90;;;;;;5067937;28;20490;-73
2023/12/04 07:00:14;;;;;;;7.37;5.40;;;-2.60;99.90;;;;;;5067781;28;20194;-72
2023/12/04 07:02:40;;;;;;;5.07;4.38;;;-2.50;99.90;;;;;;5067689;28;20167;-72
2023/12/04 07:05:06;;;;;;;7.60;5.43;;;-2.50;99.90;;;;;;5067024;28;20185;-72
2023/12/04 07:07:32;;;;;;;7.28;5.45;;;-2.40;99.90;;;;;;5049165;28;20194;-72
2023/12/04 07:09:58;;;;;;;10.17;7.40;;;-2.40;99.90;;;;;;5067050;28;20191;-72
2023/12/04 07:12:23;;;;;;;17.48;8.98;;;-2.50;99.90;;;;;;5065643;28;20694;-71
2023/12/04 07:14:49;;;;;;;10.03;6.90;;;-2.50;99.90;;;;;;5067148;28;20183;-72
2023/12/04 07:17:16;;;;;;;8.90;6.67;;;-2.50;99.90;;;;;;5066638;28;20850;-73
2023/12/04 07:19:42;;;;;;;11.73;6.07;;;-2.50;99.90;;;;;;5066927;28;20175;-73
2023/12/04 07:22:07;;;;;;;7.27;5.40;;;-2.50;99.90;;;;;;5067257;28;20182;-72
2023/12/04 07:24:33;;;;;;;6.77;4.60;;;-2.50;99.90;;;;;;5067457;28;20426;-73
2023/12/04 07:26:59;;;;;;;7.53;4.80;;;-2.30;99.90;;;;;;5066200;28;20199;-72
2023/12/04 07:29:24;;;;;;;5.47;4.40;;;-2.30;99.90;;;;;;5067979;28;20657;-72
2023/12/04 07:31:51;;;;;;;6.97;4.73;;;-2.10;99.90;;;;;;5049474;28;20207;-73
2023/12/04 07:34:17;;;;;;;9.05;5.85;;;-2.20;99.90;;;;;;5067409;28;20720;-73
2023/12/04 07:36:44;;;;;;;10.10;5.63;;;-2.30;99.90;;;;;;5067242;28;20297;-73
2023/12/04 07:39:10;;;;;;;6.40;5.30;;;-2.20;99.90;;;;;;5069698;28;20227;-72
2023/12/04 07:41:36;;;;;;;11.80;7.95;;;-2.20;99.90;;;;;;5071139;28;20175;-73
2023/12/04 07:44:03;;;;;;;13.75;8.82;;;-2.20;99.90;;;;;;5071189;28;20217;-73
2023/12/04 07:46:29;;;;;;;17.52;9.90;;;-2.20;99.90;;;;;;5071174;28;20285;-73
2023/12/04 07:48:54;;;;;;;21.40;13.40;;;-2.20;99.90;;;;;;5071032;28;20289;-73
2023/12/04 07:51:20;;;;;;;19.20;12.87;;;-2.60;99.90;;;;;;5071292;28;20194;-73
2023/12/04 07:53:47;;;;;;;27.70;16.30;;;-2.80;99.90;;;;;;5069256;28;20187;-72
2023/12/04 07:56:13;;;;;;;23.90;14.55;;;-3.10;99.90;;;;;;5069268;28;20563;-73
2023/12/04 07:58:38;;;;;;;24.80;14.70;;;-3.30;99.90;;;;;;5069118;28;20271;-73
2023/12/04 08:01:05;;;;;;;26.77;16.27;;;-3.40;99.90;;;;;;5070709;28;20417;-73
2023/12/04 08:03:31;;;;;;;25.95;14.63;;;-3.60;99.90;;;;;;5069505;28;20245;-73
2023/12/04 08:05:58;;;;;;;21.67;13.93;;;-3.50;99.90;;;;;;5069174;28;20199;-73
2023/12/04 08:08:24;;;;;;;24.98;13.73;;;-3.40;99.90;;;;;;5069316;28;20923;-73
2023/12/04 08:10:49;;;;;;;25.73;14.80;;;-3.40;99.90;;;;;;5069344;28;20197;-72
2023/12/04 08:13:16;;;;;;;22.30;13.70;;;-3.30;99.90;;;;;;5069281;28;20521;-72
2023/12/04 08:15:41;;;;;;;20.63;12.43;;;-3.20;99.90;;;;;;5068985;28;20280;-72
2023/12/04 08:18:07;;;;;;;21.03;12.93;;;-3.20;99.90;;;;;;5069376;28;20183;-73
2023/12/04 08:20:33;;;;;;;19.77;11.90;;;-3.20;99.90;;;;;;5070626;28;20179;-72
2023/12/04 08:22:59;;;;;;;20.87;11.97;;;-3.10;99.90;;;;;;5069314;28;20945;-72
2023/12/04 08:25:25;;;;;;;18.75;11.48;;;-3.00;99.90;;;;;;5070498;28;20268;-72
2023/12/04 08:27:51;;;;;;;17.60;10.10;;;-2.90;99.90;;;;;;5070586;28;20657;-73
2023/12/04 08:30:16;;;;;;;15.27;10.00;;;-2.90;99.90;;;;;;5070289;28;20185;-72
2023/12/04 08:32:42;;;;;;;13.60;9.37;;;-2.90;99.90;;;;;;5070419;28;20635;-72
2023/12/04 08:35:08;;;;;;;17.73;10.50;;;-2.80;99.90;;;;;;5068774;28;20199;-72
2023/12/04 08:37:33;;;;;;;20.07;11.20;;;-2.80;99.90;;;;;;5070181;28;20273;-73
2023/12/04 08:39:59;;;;;;;18.23;10.90;;;-2.80;99.90;;;;;;5051854;28;20186;-72
2023/12/04 08:42:26;;;;;;;16.60;10.70;;;-2.80;99.90;;;;;;5068469;28;20186;-72
2023/12/04 08:44:51;;;;;;;20.73;11.48;;;-2.80;99.90;;;;;;5068514;28;20247;-72
2023/12/04 08:47:17;;;;;;;26.03;14.77;;;-2.90;99.90;;;;;;5069711;28;20191;-72
2023/12/04 08:49:43;;;;;;;20.43;13.30;;;-3.00;99.90;;;;;;5069433;28;20918;-72
2023/12/04 08:52:09;;;;;;;22.25;13.30;;;-2.90;99.90;;;;;;5069654;28;20179;-72
2023/12/04 08:54:35;;;;;;;20.13;12.70;;;-2.80;99.90;;;;;;5069478;28;20194;-72
2023/12/04 08:57:00;;;;;;;24.40;14.00;;;-2.80;99.90;;;;;;5068072;28;20450;-72
2023/12/04 08:59:26;;;;;;;23.93;14.20;;;-2.60;99.90;;;;;;5069541;28;20429;-73
2023/12/04 09:01:52;;;;;;;21.20;12.73;;;-2.50;99.90;;;;;;5069310;28;20175;-72
2023/12/04 09:04:18;;;;;;;20.80;13.10;;;-2.40;99.90;;;;;;5069502;28;20852;-72
2023/12/04 09:06:43;;;;;;;18.97;12.03;;;-2.40;99.90;;;;;;5051491;28;20203;-72
2023/12/04 09:09:09;;;;;;;21.47;13.77;;;-2.40;99.90;;;;;;5068219;28;20244;-72
2023/12/04 09:11:34;;;;;;;20.97;12.00;;;-2.40;99.90;;;;;;5051288;28;20225;-72
2023/12/04 09:14:00;;;;;;;21.77;12.67;;;-2.40;99.90;;;;;;5069496;28;20197;-72
2023/12/04 09:16:26;;;;;;;27.17;15.07;;;-2.30;99.90;;;;;;5069132;28;20219;-72
2023/12/04 09:18:53;;;;;;;23.80;12.40;;;-2.40;99.90;;;;;;5069200;28;20190;-72
2023/12/04 09:21:19;;;;;;;22.55;13.02;;;-2.40;99.90;;;;;;5067413;28;20274;-73
2023/12/04 09:23:49;;;;;;;18.67;11.83;;;-2.50;99.90;;;;;;5067402;28;20324;-72
2023/12/04 09:26:16;;;;;;;19.13;11.60;;;-2.50;99.90;;;;;;5067500;28;20438;-72
2023/12/04 09:28:42;;;;;;;25.08;14.88;;;-2.40;99.90;;;;;;5069231;28;20183;-72
2023/12/04 09:31:09;;;;;;;33.80;17.40;;;-2.30;99.90;;;;;;5067649;28;20560;-72
2023/12/04 09:33:35;;;;;;;27.50;15.43;;;-2.30;99.90;;;;;;5068882;28;20175;-72
2023/12/04 09:36:02;;;;;;;25.42;13.75;;;-2.20;99.90;;;;;;5067171;28;20242;-72
2023/12/04 09:38:28;;;;;;;21.48;13.15;;;-2.20;99.90;;;;;;5068818;28;20171;-73
2023/12/04 09:40:57;;;;;;;22.63;13.60;;;-2.30;99.90;;;;;;5067355;28;20198;-72
2023/12/04 09:43:23;;;;;;;24.75;14.20;;;-2.30;99.90;;;;;;5069026;28;21044;-72
2023/12/04 09:45:49;;;;;;;20.48;13.15;;;-2.10;99.90;;;;;;5067463;28;20199;-72
2023/12/04 09:48:15;;;;;;;18.67;12.07;;;-2.00;99.90;;;;;;5067715;28;20202;-72
2023/12/04 09:50:40;;;;;;;25.57;13.40;;;-1.90;99.90;;;;;;5068003;28;20179;-72
2023/12/04 09:53:09;;;;;;;18.93;13.07;;;-1.80;99.90;;;;;;5069409;28;20302;-72
2023/12/04 09:55:35;;;;;;;23.10;13.63;;;-1.80;99.90;;;;;;5067624;28;20597;-72
2023/12/04 09:58:01;;;;;;;22.40;14.57;;;-1.80;99.90;;;;;;5069254;28;20189;-72
2023/12/04 10:00:27;;;;;;;20.85;13.98;;;-1.80;99.90;;;;;;5068573;28;20180;-72
2023/12/04 10:02:53;;;;;;;22.52;13.90;;;-1.80;99.90;;;;;;5067717;28;20237;-73
2023/12/04 10:05:20;;;;;;;19.92;13.77;;;-1.80;99.90;;;;;;5067722;28;20597;-73
2023/12/04 10:07:46;;;;;;;24.63;14.98;;;-1.80;99.90;;;;;;5051253;28;20202;-73
2023/12/04 10:10:14;;;;;;;24.33;14.50;;;-1.80;99.90;;;;;;5067721;28;20560;-73
2023/12/04 10:12:39;;;;;;;32.08;16.00;;;-1.70;99.90;;;;;;5069006;28;20180;-72
2023/12/04 10:15:12;;;;;;;29.50;17.20;;;-1.60;99.90;;;;;;5067597;28;20223;-72
2023/12/04 10:17:43;;;;;;;25.27;16.00;;;-1.50;99.90;;;;;;5067291;28;20194;-72
2023/12/04 10:20:12;;;;;;;25.98;16.30;;;-1.30;99.90;;;;;;5068574;28;20190;-73
2023/12/04 10:22:52;;;;;;;24.10;15.18;;;-1.10;99.90;;;;;;5068593;28;20178;-73
2023/12/04 10:25:18;;;;;;;22.23;14.35;;;-0.90;99.90;;;;;;5068652;28;20257;-73
2023/12/04 10:27:45;;;;;;;19.92;12.77;;;-0.80;99.90;;;;;;5067188;28;20207;-73
2023/12/04 10:30:22;;;;;;;20.85;13.77;;;-0.60;99.90;;;;;;5068178;28;20262;-73
2023/12/04 10:32:47;;;;;;;19.42;13.02;;;-0.70;99.90;;;;;;5068405;28;20178;-74
2023/12/04 10:35:13;;;;;;;20.37;13.40;;;-0.70;99.90;;;;;;5050090;28;20264;-74
2023/12/04 10:37:39;;;;;;;17.73;12.90;;;-0.70;99.90;;;;;;5068389;28;20901;-74
2023/12/04 10:40:08;;;;;;;24.10;13.50;;;-0.80;99.90;;;;;;5068373;28;20183;-73
2023/12/04 10:42:34;;;;;;;19.67;12.20;;;-0.70;99.90;;;;;;5068092;28;20419;-74
2023/12/04 10:45:00;;;;;;;25.63;14.20;;;-0.70;99.90;;;;;;5068136;28;20694;-74
2023/12/04 10:47:30;;;;;;;22.23;13.50;;;-0.70;99.90;;;;;;5068046;28;20437;-74
2023/12/04 10:49:56;;;;;;;24.52;13.35;;;-0.70;99.90;;;;;;5066505;28;20822;-74
2023/12/04 10:52:22;;;;;;;22.88;14.23;;;-0.60;99.90;;;;;;5068036;28;20195;-73
2023/12/04 10:54:48;;;;;;;23.77;14.80;;;-0.60;99.90;;;;;;5068073;28;20201;-73
2023/12/04 10:57:38;;;;;;;21.80;12.88;;;-0.40;99.90;;;;;;5050277;28;20245;-73
2023/12/04 11:00:05;;;;;;;25.58;14.38;;;-0.30;99.90;;;;;;5066721;28;20199;-72
2023/12/04 11:02:34;;;;;;;22.80;13.57;;;-0.20;99.90;;;;;;5067482;28;20178;-74
2023/12/04 11:05:13;;;;;;;22.85;12.13;;;0.00;99.90;;;;;;5067408;28;20554;-75
2023/12/04 11:07:57;;;;;;;23.25;15.05;;;0.10;99.90;;;;;;5067527;28;20180;-74
2023/12/04 11:10:26;;;;;;;24.67;14.32;;;0.10;99.90;;;;;;5066379;28;20176;-74
2023/12/04 11:13:03;;;;;;;26.10;14.70;;;0.30;99.90;;;;;;5069598;28;20183;-75
2023/12/04 11:15:31;;;;;;;23.48;14.75;;;0.20;99.90;;;;;;5070042;28;20577;-73
2023/12/04 11:18:00;;;;;;;29.70;15.35;;;0.20;99.90;;;;;;5071104;28;20642;-75
2023/12/04 11:20:30;;;;;;;26.80;17.10;;;0.20;99.90;;;;;;5070014;28;20530;-75
2023/12/04 11:22:57;;;;;;;27.55;16.95;;;0.20;99.90;;;;;;5069778;28;20187;-73
2023/12/04 11:25:24;;;;;;;22.80;13.38;;;0.10;99.90;;;;;;5070784;28;20186;-74
2023/12/04 11:27:52;;;;;;;23.17;14.02;;;0.10;99.90;;;;;;5070778;28;20191;-75
2023/12/04 11:30:18;;;;;;;23.83;14.60;;;-0.10;99.90;;;;;;5070523;28;20218;-74
2023/12/04 11:32:45;;;;;;;24.00;14.93;;;0.00;99.90;;;;;;5069317;28;20665;-74
2023/12/04 11:35:18;;;;;;;22.27;13.95;;;0.00;99.90;;;;;;5070432;28;20216;-74
2023/12/04 11:37:47;;;;;;;25.13;14.98;;;0.20;99.90;;;;;;5068760;28;20209;-75
2023/12/04 11:40:16;;;;;;;26.10;16.55;;;0.40;99.90;;;;;;5070385;28;20177;-74
2023/12/04 11:42:42;;;;;;;26.10;16.85;;;0.60;99.90;;;;;;5068815;28;20274;-75
2023/12/04 11:45:08;;;;;;;23.37;15.23;;;0.80;99.90;;;;;;5070335;28;20567;-75
2023/12/04 11:47:55;;;;;;;26.38;16.77;;;0.80;99.90;;;;;;5070199;28;20190;-74
2023/12/04 11:50:22;;;;;;;33.72;20.15;;;0.90;99.90;;;;;;5069010;28;20184;-74
2023/12/04 11:52:48;;;;;;;29.42;18.08;;;0.90;99.90;;;;;;5070141;28;20201;-74
2023/12/04 11:55:26;;;;;;;30.02;18.45;;;0.90;99.90;;;;;;5051309;28;20316;-75
2023/12/04 11:57:54;;;;;;;29.88;18.02;;;0.90;99.90;;;;;;5069762;28;20182;-74
2023/12/04 12:00:24;;;;;;;22.80;14.95;;;0.90;99.90;;;;;;5070032;28;20206;-73
2023/12/04 12:02:52;;;;;;;25.20;15.55;;;0.80;99.90;;;;;;5070156;28;20183;-73
2023/12/04 12:05:19;;;;;;;21.70;13.95;;;0.80;99.90;;;;;;5069908;28;20261;-74
2023/12/04 12:07:45;;;;;;;22.30;13.38;;;0.70;99.90;;;;;;5070585;28;20187;-73
2023/12/04 12:10:13;;;;;;;24.75;16.45;;;0.60;99.90;;;;;;5069361;28;20262;-75
2023/12/04 12:12:40;;;;;;;21.45;13.88;;;0.70;99.90;;;;;;5071016;28;20626;-75
2023/12/04 12:15:09;;;;;;;19.33;13.10;;;0.70;99.90;;;;;;5069028;28;20206;-75
2023/12/04 12:17:35;;;;;;;21.73;13.77;;;0.80;99.90;;;;;;5052579;28;20207;-75
2023/12/04 12:20:01;;;;;;;19.20;12.93;;;0.90;99.90;;;;;;5069290;28;20185;-75
2023/12/04 12:22:26;;;;;;;24.47;14.10;;;1.10;99.90;;;;;;5070401;28;20179;-75
2023/12/04 12:24:52;;;;;;;31.40;17.97;;;1.30;99.90;;;;;;5069859;28;20183;-76
2023/12/04 12:27:17;;;;;;;27.23;15.67;;;1.60;99.90;;;;;;5070609;28;20212;-75
2023/12/04 12:29:43;;;;;;;24.50;14.40;;;1.80;99.90;;;;;;5070473;28;20270;-75
2023/12/04 12:32:09;;;;;;;22.23;14.00;;;1.80;99.90;;;;;;5070372;28;20184;-76